Time;durP1;ratioP1;P1;durP2;ratioP2;P2;SDS_P1;SDS_P2;PMS_P1;PMS_P2;Temp;Humidity;BMP_temperature;BMP_pressure;BME280_temperature;BME280_humidity;BME280_pressure;Samples;Min_cycle;Max_cycle;Signal;HPM_P1;HPM_P2
2022/01/28 00:00:32;;;;;;;;;7.00;7.00;;;;;;;;5075650;27;45319;-74
2022/01/28 00:05:26;;;;;;;;;6.75;6.25;;;;;;;;5076971;27;45384;-74
2022/01/28 00:07:52;;;;;;;;;5.00;5.00;;;;;;;;5076035;27;45445;-74
2022/01/28 00:10:18;;;;;;;;;7.00;6.50;;;;;;;;5076961;27;45381;-74
2022/01/28 00:13:05;;;;;;;;;5.00;5.00;;;;;;;;5076935;27;46417;-74
2022/01/28 00:39:24;;;;;;;;;6.25;6.00;;;;;;;;5073098;27;45509;-73
2022/01/28 00:41:49;;;;;;;;;7.25;5.75;;;;;;;;5077433;27;45398;-74
2022/01/28 00:44:14;;;;;;;;;6.25;6.25;;;;;;;;5084389;27;45450;-74
2022/01/28 00:46:39;;;;;;;;;6.00;6.00;;;;;;;;5076733;27;45505;-74
2022/01/28 00:49:05;;;;;;;;;6.00;6.00;;;;;;;;5076106;27;45503;-74
2022/01/28 00:51:30;;;;;;;;;6.50;5.00;;;;;;;;5078655;27;45439;-73
2022/01/28 00:53:55;;;;;;;;;6.25;5.75;;;;;;;;5079231;27;46468;-74
2022/01/28 00:56:20;;;;;;;;;8.50;7.75;;;;;;;;5074192;27;45469;-74
2022/01/28 00:58:45;;;;;;;;;6.75;5.00;;;;;;;;5081704;27;45722;-74
2022/01/28 01:01:11;;;;;;;;;7.00;6.00;;;;;;;;5075226;27;45260;-74
2022/01/28 01:03:36;;;;;;;;;5.00;5.00;;;;;;;;5075600;28;45362;-74
2022/01/28 01:06:01;;;;;;;;;6.00;6.00;;;;;;;;5081683;27;45475;-74
2022/01/28 01:08:26;;;;;;;;;7.00;5.75;;;;;;;;5082320;27;45266;-74
2022/01/28 01:10:53;;;;;;;;;5.50;4.25;;;;;;;;5051987;28;45468;-73
2022/01/28 01:13:19;;;;;;;;;2.00;2.00;;;;;;;;5072918;28;45651;-74
2022/01/28 01:15:48;;;;;;;;;9.25;6.25;;;;;;;;5076232;27;45272;-74
2022/01/28 01:18:21;;;;;;;;;8.00;6.00;;;;;;;;5074556;27;45444;-74
2022/01/28 01:23:22;;;;;;;;;6.25;6.25;;;;;;;;5076226;27;45923;-74
2022/01/28 01:25:52;;;;;;;;;8.50;5.00;;;;;;;;5072932;27;45463;-74
2022/01/28 01:28:20;;;;;;;;;5.50;5.50;;;;;;;;5072483;28;45584;-74
2022/01/28 01:30:46;;;;;;;;;6.75;6.25;;;;;;;;5075772;28;45423;-74
2022/01/28 01:33:11;;;;;;;;;4.50;4.50;;;;;;;;5074557;27;46395;-74
2022/01/28 01:35:37;;;;;;;;;5.00;5.00;;;;;;;;5074634;28;45343;-74
2022/01/28 01:38:03;;;;;;;;;5.25;5.25;;;;;;;;5073514;28;45414;-74
2022/01/28 01:40:36;;;;;;;;;5.25;5.25;;;;;;;;5072936;28;45626;-73
2022/01/28 01:43:13;;;;;;;;;5.50;5.00;;;;;;;;5071559;28;45578;-74
2022/01/28 01:45:56;;;;;;;;;5.00;5.00;;;;;;;;5075168;28;45486;-73
2022/01/28 01:53:49;;;;;;;;;8.50;6.00;;;;;;;;5071665;28;45920;-73
2022/01/28 01:56:14;;;;;;;;;7.00;6.00;;;;;;;;5073172;27;49048;-73
2022/01/28 01:58:41;;;;;;;;;5.00;5.00;;;;;;;;5072257;28;45728;-73
2022/01/28 02:01:06;;;;;;;;;6.00;5.00;;;;;;;;5081416;27;45484;-74
2022/01/28 02:03:31;;;;;;;;;6.25;4.25;;;;;;;;5074259;27;45431;-74
2022/01/28 02:05:58;;;;;;;;;6.75;6.75;;;;;;;;5073612;27;45431;-74
2022/01/28 02:08:27;;;;;;;;;5.00;5.00;;;;;;;;5073066;27;45545;-73
2022/01/28 02:10:57;;;;;;;;;6.00;6.00;;;;;;;;5077495;27;45487;-74
2022/01/28 02:13:22;;;;;;;;;7.25;7.25;;;;;;;;5072210;27;46271;-73
2022/01/28 02:15:47;;;;;;;;;9.00;5.25;;;;;;;;5073972;28;45299;-74
2022/01/28 02:18:12;;;;;;;;;6.00;6.00;;;;;;;;5077315;27;45449;-74
2022/01/28 02:20:42;;;;;;;;;5.75;5.75;;;;;;;;5074171;28;45394;-74
2022/01/28 02:23:07;;;;;;;;;6.00;6.00;;;;;;;;5077348;27;45635;-73
2022/01/28 02:25:33;;;;;;;;;6.75;5.25;;;;;;;;5072886;27;45296;-74
2022/01/28 02:28:00;;;;;;;;;5.25;5.25;;;;;;;;5075773;28;45375;-73
2022/01/28 02:30:26;;;;;;;;;7.00;5.00;;;;;;;;5072614;28;45431;-73
2022/01/28 02:32:56;;;;;;;;;6.25;4.00;;;;;;;;5072643;28;45695;-74
2022/01/28 02:35:22;;;;;;;;;7.00;6.00;;;;;;;;5076823;27;45394;-73
2022/01/28 02:37:47;;;;;;;;;7.25;5.25;;;;;;;;5072980;28;45274;-74
2022/01/28 02:40:12;;;;;;;;;5.00;5.00;;;;;;;;5074331;28;45392;-74
2022/01/28 02:45:25;;;;;;;;;5.75;5.75;;;;;;;;5079223;27;45375;-74
2022/01/28 02:47:55;;;;;;;;;5.00;5.00;;;;;;;;5084312;27;45495;-74
2022/01/28 02:50:20;;;;;;;;;5.00;5.00;;;;;;;;5085048;27;45511;-74
2022/01/28 02:53:01;;;;;;;;;4.00;4.00;;;;;;;;5076032;27;45420;-75
2022/01/28 02:55:26;;;;;;;;;6.00;6.00;;;;;;;;5075933;28;45359;-74
2022/01/28 02:58:03;;;;;;;;;5.75;5.00;;;;;;;;5081485;27;45265;-74
2022/01/28 03:00:28;;;;;;;;;8.75;6.00;;;;;;;;5058891;28;45378;-74
2022/01/28 03:02:53;;;;;;;;;4.25;4.25;;;;;;;;5078074;27;45988;-73
2022/01/28 03:05:30;;;;;;;;;5.50;5.50;;;;;;;;5074600;27;45569;-74
2022/01/28 03:07:56;;;;;;;;;5.00;5.00;;;;;;;;5089393;27;45360;-74
2022/01/28 03:13:12;;;;;;;;;6.75;6.75;;;;;;;;5078229;28;45992;-73
2022/01/28 03:15:40;;;;;;;;;5.75;5.75;;;;;;;;5077740;27;45470;-74
2022/01/28 03:20:41;;;;;;;;;4.50;4.50;;;;;;;;5080522;27;45464;-74
2022/01/28 03:23:07;;;;;;;;;6.75;4.75;;;;;;;;5085400;27;45552;-74
2022/01/28 03:25:37;;;;;;;;;7.00;4.75;;;;;;;;5090931;27;45261;-74
2022/01/28 03:28:03;;;;;;;;;5.50;5.50;;;;;;;;5077812;27;45405;-74
2022/01/28 03:30:28;;;;;;;;;5.00;5.00;;;;;;;;5073753;28;45356;-74
2022/01/28 03:32:53;;;;;;;;;7.00;5.25;;;;;;;;5075402;27;46565;-73
2022/01/28 03:35:20;;;;;;;;;4.50;4.50;;;;;;;;5072912;28;46219;-74
2022/01/28 03:37:45;;;;;;;;;8.25;5.00;;;;;;;;5075656;27;45547;-74
2022/01/28 03:40:10;;;;;;;;;5.25;5.25;;;;;;;;5076458;28;45394;-73
2022/01/28 03:42:36;;;;;;;;;2.00;2.00;;;;;;;;5084587;27;45215;-74
2022/01/28 03:45:01;;;;;;;;;5.00;5.00;;;;;;;;5077198;27;45410;-73
2022/01/28 03:47:26;;;;;;;;;6.25;6.25;;;;;;;;5079400;27;45402;-74
2022/01/28 03:49:51;;;;;;;;;6.00;5.00;;;;;;;;5073892;28;45221;-74
2022/01/28 03:52:17;;;;;;;;;3.00;3.00;;;;;;;;5082850;27;45435;-74
2022/01/28 03:54:42;;;;;;;;;4.50;3.75;;;;;;;;5077421;27;45680;-74
2022/01/28 03:57:07;;;;;;;;;5.00;4.00;;;;;;;;5075253;28;45446;-73
2022/01/28 03:59:33;;;;;;;;;5.00;5.00;;;;;;;;5079327;27;45252;-73
2022/01/28 04:01:58;;;;;;;;;4.50;3.25;;;;;;;;5076418;28;46210;-74
2022/01/28 04:05:23;;;;;;;;;3.75;3.75;;;;;;;;5075048;28;45291;-74
2022/01/28 04:12:42;;;;;;;;;5.00;4.25;;;;;;;;5076769;27;45508;-74
2022/01/28 04:15:24;;;;;;;;;6.00;5.00;;;;;;;;5079110;27;45454;-74
2022/01/28 04:17:50;;;;;;;;;6.00;5.00;;;;;;;;5076190;28;45463;-73
2022/01/28 04:20:15;;;;;;;;;5.00;5.00;;;;;;;;5076474;27;45499;-74
2022/01/28 04:22:41;;;;;;;;;5.00;5.00;;;;;;;;5076401;27;45747;-74
2022/01/28 04:25:06;;;;;;;;;6.50;5.00;;;;;;;;5076147;27;45284;-74
2022/01/28 04:27:31;;;;;;;;;5.25;4.00;;;;;;;;5074735;27;45467;-74
2022/01/28 04:29:57;;;;;;;;;5.75;5.00;;;;;;;;5075801;28;45477;-74
2022/01/28 04:32:24;;;;;;;;;7.00;4.00;;;;;;;;5074937;27;45480;-74
2022/01/28 04:34:49;;;;;;;;;5.00;5.00;;;;;;;;5078932;27;45519;-74
2022/01/28 04:37:35;;;;;;;;;5.50;5.50;;;;;;;;5075047;28;45353;-74
2022/01/28 05:00:28;;;;;;;;;5.00;4.00;;;;;;;;5070927;27;45771;-68
2022/01/28 05:26:51;;;;;;;;;5.50;5.50;;;;;;;;5000956;28;45556;-69
2022/01/28 05:29:16;;;;;;;;;5.00;5.00;;;;;;;;4996800;28;45405;-69
2022/01/28 05:31:41;;;;;;;;;5.00;4.00;;;;;;;;4993490;28;45956;-69
2022/01/28 05:34:06;;;;;;;;;4.25;4.00;;;;;;;;5010487;28;46578;-69
2022/01/28 05:36:34;;;;;;;;;4.00;4.00;;;;;;;;4997582;28;45384;-69
2022/01/28 05:38:59;;;;;;;;;5.00;4.00;;;;;;;;4995656;28;45515;-68
2022/01/28 05:41:24;;;;;;;;;4.00;4.00;;;;;;;;4994123;28;45420;-69
2022/01/28 05:43:50;;;;;;;;;3.00;3.00;;;;;;;;4993594;28;45682;-68
2022/01/28 05:46:17;;;;;;;;;4.00;4.00;;;;;;;;4994759;28;45586;-68
2022/01/28 05:48:42;;;;;;;;;4.00;4.00;;;;;;;;5000123;28;46028;-68
2022/01/28 05:51:07;;;;;;;;;4.50;3.25;;;;;;;;4999175;28;45491;-68
2022/01/28 05:53:32;;;;;;;;;4.00;4.00;;;;;;;;5069990;28;47192;-69
2022/01/28 05:55:58;;;;;;;;;5.25;4.00;;;;;;;;5073387;28;45311;-68
2022/01/28 05:58:23;;;;;;;;;4.00;4.00;;;;;;;;5072831;27;45501;-69
2022/01/28 06:00:48;;;;;;;;;6.25;4.00;;;;;;;;5075263;28;45363;-68
2022/01/28 06:03:13;;;;;;;;;5.75;4.00;;;;;;;;5071577;27;45497;-68
2022/01/28 06:05:38;;;;;;;;;3.25;3.00;;;;;;;;5072500;27;45545;-69
2022/01/28 06:08:04;;;;;;;;;5.00;5.00;;;;;;;;5073345;28;45477;-68
2022/01/28 06:10:29;;;;;;;;;4.25;4.25;;;;;;;;5073053;28;45400;-69
2022/01/28 06:12:54;;;;;;;;;2.50;2.50;;;;;;;;5074625;27;46681;-69
2022/01/28 06:15:19;;;;;;;;;3.50;3.50;;;;;;;;5072194;28;45301;-69
2022/01/28 06:17:45;;;;;;;;;4.00;4.00;;;;;;;;5071640;28;45380;-69
2022/01/28 06:20:11;;;;;;;;;3.25;3.25;;;;;;;;5086432;27;45477;-69
2022/01/28 06:22:40;;;;;;;;;3.25;3.25;;;;;;;;5081676;27;45434;-69
2022/01/28 06:25:07;;;;;;;;;4.75;4.00;;;;;;;;5077573;28;45383;-69
2022/01/28 06:27:32;;;;;;;;;3.25;3.00;;;;;;;;5076308;28;45487;-69
2022/01/28 06:29:57;;;;;;;;;4.75;4.75;;;;;;;;5078081;27;45432;-69
2022/01/28 06:32:22;;;;;;;;;2.75;2.75;;;;;;;;5078717;27;45448;-69
2022/01/28 06:34:48;;;;;;;;;3.50;3.50;;;;;;;;5074675;27;45314;-69
2022/01/28 06:37:13;;;;;;;;;4.00;4.00;;;;;;;;5076928;27;45380;-69
2022/01/28 06:39:38;;;;;;;;;4.00;4.00;;;;;;;;5077239;28;45481;-69
2022/01/28 06:42:04;;;;;;;;;6.00;3.00;;;;;;;;5074167;28;46142;-68
2022/01/28 06:44:30;;;;;;;;;4.00;4.00;;;;;;;;5074451;28;45475;-69
2022/01/28 06:46:55;;;;;;;;;4.50;4.50;;;;;;;;5080444;27;45438;-68
2022/01/28 06:49:20;;;;;;;;;4.00;4.00;;;;;;;;5083346;27;45477;-69
2022/01/28 06:51:46;;;;;;;;;3.00;3.00;;;;;;;;5077773;27;45449;-69
2022/01/28 06:54:11;;;;;;;;;3.25;3.00;;;;;;;;5074529;27;45315;-69
2022/01/28 06:56:36;;;;;;;;;3.25;3.25;;;;;;;;5075346;27;45426;-69
2022/01/28 06:59:03;;;;;;;;;4.25;4.25;;;;;;;;5081172;27;45532;-69
2022/01/28 07:01:29;;;;;;;;;4.25;4.00;;;;;;;;5075919;27;46369;-69
2022/01/28 07:03:54;;;;;;;;;3.75;3.75;;;;;;;;5077857;28;45312;-68
2022/01/28 07:06:21;;;;;;;;;3.75;3.75;;;;;;;;5075055;27;45331;-69
2022/01/28 07:08:46;;;;;;;;;3.50;3.50;;;;;;;;5075145;28;45588;-69
2022/01/28 07:11:12;;;;;;;;;4.00;4.00;;;;;;;;5077069;27;46121;-68
2022/01/28 07:13:37;;;;;;;;;5.75;5.00;;;;;;;;5074199;27;45474;-69
2022/01/28 07:16:02;;;;;;;;;3.50;3.00;;;;;;;;5077507;27;45413;-68
2022/01/28 07:18:28;;;;;;;;;4.50;4.50;;;;;;;;5075751;28;45506;-69
2022/01/28 07:20:54;;;;;;;;;4.25;4.25;;;;;;;;5074930;27;46272;-69
2022/01/28 07:23:19;;;;;;;;;5.00;5.00;;;;;;;;5073574;28;48715;-69
2022/01/28 07:25:44;;;;;;;;;4.00;4.00;;;;;;;;5075625;27;45426;-68
2022/01/28 07:28:09;;;;;;;;;3.25;3.25;;;;;;;;5076616;28;45532;-72
2022/01/28 07:30:35;;;;;;;;;3.50;3.25;;;;;;;;5073950;27;46609;-72
2022/01/28 07:33:04;;;;;;;;;5.00;5.00;;;;;;;;5078875;27;45379;-70
2022/01/28 07:35:30;;;;;;;;;2.25;2.25;;;;;;;;5071564;27;45462;-69
2022/01/28 07:37:55;;;;;;;;;2.00;2.00;;;;;;;;5070518;28;45437;-69
2022/01/28 07:40:20;;;;;;;;;3.00;3.00;;;;;;;;5074792;28;46351;-70
2022/01/28 07:42:45;;;;;;;;;4.25;3.75;;;;;;;;5073762;27;45600;-70
2022/01/28 07:45:13;;;;;;;;;3.25;3.00;;;;;;;;5065185;28;45475;-70
2022/01/28 07:47:39;;;;;;;;;4.00;3.00;;;;;;;;5060656;28;45372;-69
2022/01/28 07:50:05;;;;;;;;;4.75;4.00;;;;;;;;5061198;27;46348;-68
2022/01/28 07:52:30;;;;;;;;;5.50;4.00;;;;;;;;5057333;28;45673;-68
2022/01/28 07:54:56;;;;;;;;;4.25;4.25;;;;;;;;5070033;28;45383;-66
2022/01/28 07:57:21;;;;;;;;;3.50;3.50;;;;;;;;5064971;28;45462;-67
2022/01/28 07:59:46;;;;;;;;;4.25;3.50;;;;;;;;5073336;28;45606;-67
2022/01/28 08:02:12;;;;;;;;;4.25;3.50;;;;;;;;5062949;28;45592;-67
2022/01/28 08:04:38;;;;;;;;;5.00;4.00;;;;;;;;5073246;28;45488;-67
2022/01/28 08:07:03;;;;;;;;;3.00;3.00;;;;;;;;5076208;28;45494;-67
2022/01/28 08:09:29;;;;;;;;;4.75;4.00;;;;;;;;5074062;28;46580;-67
2022/01/28 08:11:54;;;;;;;;;4.50;4.00;;;;;;;;5072756;28;45358;-68
2022/01/28 08:14:19;;;;;;;;;3.00;3.00;;;;;;;;5071919;27;45654;-67
2022/01/28 08:16:44;;;;;;;;;4.50;4.50;;;;;;;;5057688;28;46049;-67
2022/01/28 08:19:09;;;;;;;;;7.00;4.25;;;;;;;;5057013;28;46441;-66
2022/01/28 08:21:35;;;;;;;;;3.00;3.00;;;;;;;;5060279;28;45698;-67
2022/01/28 08:24:03;;;;;;;;;3.75;3.75;;;;;;;;5067790;27;45587;-67
2022/01/28 08:26:28;;;;;;;;;3.25;3.25;;;;;;;;5071858;28;45298;-67
2022/01/28 08:28:53;;;;;;;;;3.00;3.00;;;;;;;;5071914;27;46598;-68
2022/01/28 08:31:19;;;;;;;;;4.25;4.25;;;;;;;;5074139;28;45340;-68
2022/01/28 08:33:44;;;;;;;;;4.50;4.50;;;;;;;;5073827;28;45828;-68
2022/01/28 08:36:09;;;;;;;;;3.25;3.25;;;;;;;;5072075;28;45363;-67
2022/01/28 08:38:38;;;;;;;;;5.00;4.25;;;;;;;;5071516;28;45585;-67
2022/01/28 08:41:04;;;;;;;;;6.25;4.00;;;;;;;;5071990;28;45720;-67
2022/01/28 08:43:29;;;;;;;;;5.00;5.00;;;;;;;;5072232;28;45217;-69
2022/01/28 08:45:54;;;;;;;;;4.00;4.00;;;;;;;;5075112;28;45228;-69
2022/01/28 08:48:20;;;;;;;;;4.00;4.00;;;;;;;;5071346;28;45575;-69
2022/01/28 08:50:45;;;;;;;;;4.00;4.00;;;;;;;;5071720;28;45456;-69
2022/01/28 08:53:10;;;;;;;;;3.50;3.50;;;;;;;;5071718;28;45461;-69
2022/01/28 08:55:37;;;;;;;;;4.00;4.00;;;;;;;;5071512;28;45408;-69
2022/01/28 08:58:03;;;;;;;;;4.25;3.50;;;;;;;;5074644;28;46364;-67
2022/01/28 09:00:28;;;;;;;;;5.00;3.00;;;;;;;;5071594;27;45451;-67
2022/01/28 09:02:53;;;;;;;;;6.75;4.00;;;;;;;;5071833;28;45442;-69
2022/01/28 09:05:18;;;;;;;;;4.00;4.00;;;;;;;;5071294;28;45536;-69
2022/01/28 09:07:44;;;;;;;;;6.25;4.75;;;;;;;;5071107;27;45465;-68
2022/01/28 09:10:13;;;;;;;;;4.75;4.00;;;;;;;;5074035;28;45402;-69
2022/01/28 09:12:46;;;;;;;;;4.50;4.50;;;;;;;;5074270;28;45484;-69
2022/01/28 09:15:11;;;;;;;;;4.00;4.00;;;;;;;;5071545;28;45476;-69
2022/01/28 09:17:37;;;;;;;;;4.75;4.75;;;;;;;;5071080;28;46438;-69
2022/01/28 09:20:02;;;;;;;;;5.75;3.00;;;;;;;;5053075;28;45399;-69
2022/01/28 09:22:28;;;;;;;;;4.00;4.00;;;;;;;;5071994;28;45446;-69
2022/01/28 09:24:53;;;;;;;;;4.75;4.50;;;;;;;;5074348;28;45327;-67
2022/01/28 09:27:18;;;;;;;;;4.25;4.25;;;;;;;;5071045;28;45545;-68
2022/01/28 09:29:43;;;;;;;;;5.50;3.50;;;;;;;;5070870;28;45770;-69
2022/01/28 09:32:09;;;;;;;;;4.75;4.75;;;;;;;;5071092;28;45459;-69
2022/01/28 09:34:34;;;;;;;;;4.00;4.00;;;;;;;;5071854;28;45225;-69
2022/01/28 09:36:59;;;;;;;;;4.50;3.50;;;;;;;;5074119;28;45533;-69
2022/01/28 09:39:24;;;;;;;;;2.50;2.50;;;;;;;;5070983;28;45382;-69
2022/01/28 09:41:51;;;;;;;;;5.75;5.00;;;;;;;;5071130;27;45383;-69
2022/01/28 09:44:19;;;;;;;;;4.00;4.00;;;;;;;;5071168;28;45423;-69
2022/01/28 09:46:45;;;;;;;;;6.25;5.00;;;;;;;;5070783;27;46231;-69
2022/01/28 09:49:11;;;;;;;;;3.75;3.25;;;;;;;;5073302;28;45281;-69
2022/01/28 09:51:36;;;;;;;;;6.50;4.75;;;;;;;;5071879;28;45347;-69
2022/01/28 09:54:02;;;;;;;;;5.00;3.50;;;;;;;;5070733;27;45423;-69
2022/01/28 09:56:28;;;;;;;;;4.00;4.00;;;;;;;;5074104;28;46589;-69
2022/01/28 09:58:53;;;;;;;;;4.00;4.00;;;;;;;;5074746;28;48830;-69
2022/01/28 10:01:19;;;;;;;;;5.25;4.00;;;;;;;;5076566;27;45363;-67
2022/01/28 10:03:44;;;;;;;;;4.25;4.25;;;;;;;;5076085;28;45495;-69
2022/01/28 10:06:09;;;;;;;;;3.50;3.50;;;;;;;;5073689;28;45521;-69
2022/01/28 10:08:36;;;;;;;;;5.50;4.00;;;;;;;;5074566;28;45563;-69
2022/01/28 10:11:09;;;;;;;;;6.25;5.25;;;;;;;;5074129;28;45393;-69
2022/01/28 10:16:02;;;;;;;;;6.00;5.00;;;;;;;;5077916;27;45835;-69
2022/01/28 10:18:35;;;;;;;;;5.00;4.25;;;;;;;;5058907;28;45753;-69
2022/01/28 10:21:00;;;;;;;;;4.00;4.00;;;;;;;;5073390;28;45499;-69
2022/01/28 10:23:25;;;;;;;;;3.00;3.00;;;;;;;;5074046;28;45547;-69
2022/01/28 10:25:56;;;;;;;;;6.00;4.75;;;;;;;;5074407;27;48125;-69
2022/01/28 10:28:22;;;;;;;;;5.00;5.00;;;;;;;;5075702;27;45483;-69
2022/01/28 10:30:47;;;;;;;;;6.50;4.75;;;;;;;;5075767;27;45394;-69
2022/01/28 10:33:14;;;;;;;;;3.75;3.75;;;;;;;;5074035;28;45231;-69
2022/01/28 10:35:47;;;;;;;;;4.00;4.00;;;;;;;;5073336;27;45691;-69
2022/01/28 10:38:26;;;;;;;;;4.50;4.50;;;;;;;;5073734;27;45861;-69
2022/01/28 10:41:06;;;;;;;;;5.00;3.75;;;;;;;;5073760;28;45364;-69
2022/01/28 10:43:31;;;;;;;;;4.00;4.00;;;;;;;;5056770;28;45455;-69
2022/01/28 10:46:04;;;;;;;;;5.00;5.00;;;;;;;;5076957;28;45263;-69
2022/01/28 10:48:29;;;;;;;;;5.50;5.50;;;;;;;;5074206;28;45388;-69
2022/01/28 10:50:57;;;;;;;;;5.00;4.00;;;;;;;;5072646;28;45434;-69
2022/01/28 10:53:22;;;;;;;;;5.00;5.00;;;;;;;;5072387;28;45482;-70
2022/01/28 10:55:49;;;;;;;;;4.00;4.00;;;;;;;;5056575;28;47592;-69
2022/01/28 10:58:21;;;;;;;;;4.00;4.00;;;;;;;;5074822;28;45795;-69
2022/01/28 11:00:48;;;;;;;;;4.00;4.00;;;;;;;;5074262;28;45313;-69
2022/01/28 11:03:17;;;;;;;;;3.50;3.50;;;;;;;;5072079;28;45357;-69
2022/01/28 11:05:46;;;;;;;;;4.00;4.00;;;;;;;;5071496;27;47681;-69
2022/01/28 11:08:13;;;;;;;;;4.00;4.00;;;;;;;;5072235;28;45356;-69
2022/01/28 11:10:38;;;;;;;;;3.00;3.00;;;;;;;;5072103;28;45903;-70
2022/01/28 11:13:04;;;;;;;;;4.50;4.50;;;;;;;;5075548;27;45564;-69
2022/01/28 11:15:30;;;;;;;;;6.50;5.00;;;;;;;;5073683;28;46436;-69
2022/01/28 11:17:57;;;;;;;;;4.25;3.50;;;;;;;;5072247;27;45810;-69
2022/01/28 11:20:25;;;;;;;;;4.00;4.00;;;;;;;;5072062;28;45534;-69
2022/01/28 11:23:03;;;;;;;;;5.00;5.00;;;;;;;;5072136;28;45430;-69
2022/01/28 11:25:47;;;;;;;;;6.75;4.00;;;;;;;;5072581;27;45308;-69
2022/01/28 11:28:13;;;;;;;;;4.00;4.00;;;;;;;;5071705;28;45362;-69
2022/01/28 11:30:51;;;;;;;;;5.00;5.00;;;;;;;;5074755;28;45399;-69
2022/01/28 11:33:17;;;;;;;;;5.50;4.75;;;;;;;;5071705;28;45492;-69
2022/01/28 11:35:42;;;;;;;;;5.50;4.00;;;;;;;;5071539;28;46432;-69
2022/01/28 11:38:28;;;;;;;;;5.00;5.00;;;;;;;;5071635;28;45530;-69
2022/01/28 11:40:55;;;;;;;;;3.75;3.75;;;;;;;;5072335;28;45544;-69
2022/01/28 11:43:24;;;;;;;;;4.00;3.25;;;;;;;;5074149;27;45349;-71
2022/01/28 11:46:09;;;;;;;;;6.50;5.00;;;;;;;;5057291;28;46428;-71
2022/01/28 11:48:49;;;;;;;;;6.00;4.25;;;;;;;;5025419;28;1344872;-71
2022/01/28 11:51:15;;;;;;;;;4.25;4.25;;;;;;;;5073203;28;45513;-71
2022/01/28 11:53:54;;;;;;;;;5.75;5.00;;;;;;;;5072620;27;45478;-71
2022/01/28 11:56:21;;;;;;;;;3.50;3.50;;;;;;;;5072593;28;46565;-71
2022/01/28 11:59:05;;;;;;;;;5.00;5.00;;;;;;;;5072741;28;45383;-71
2022/01/28 12:01:39;;;;;;;;;5.00;3.75;;;;;;;;5072876;28;45355;-71
2022/01/28 12:04:23;;;;;;;;;5.50;4.50;;;;;;;;5072472;28;45469;-70
2022/01/28 12:06:59;;;;;;;;;3.75;3.75;;;;;;;;5074762;27;45566;-71
2022/01/28 12:09:25;;;;;;;;;4.50;4.00;;;;;;;;5072611;28;45389;-71
2022/01/28 12:11:50;;;;;;;;;4.50;4.50;;;;;;;;5072689;27;45345;-71
2022/01/28 12:14:16;;;;;;;;;5.00;4.25;;;;;;;;5072586;28;45354;-71
2022/01/28 12:16:45;;;;;;;;;4.25;4.00;;;;;;;;5071878;28;47030;-71
2022/01/28 12:19:17;;;;;;;;;4.00;4.00;;;;;;;;5074784;27;45357;-71
2022/01/28 12:22:02;;;;;;;;;4.00;4.00;;;;;;;;5073680;28;45324;-71
2022/01/28 12:24:27;;;;;;;;;6.25;3.75;;;;;;;;5072373;27;45662;-70
2022/01/28 12:27:02;;;;;;;;;4.00;4.00;;;;;;;;5069262;28;46223;-70
2022/01/28 12:29:28;;;;;;;;;3.75;3.50;;;;;;;;5072124;28;45301;-70
2022/01/28 12:31:55;;;;;;;;;5.00;5.00;;;;;;;;5072106;28;45414;-70
2022/01/28 12:34:20;;;;;;;;;5.25;4.75;;;;;;;;5074350;28;45425;-70
2022/01/28 12:36:48;;;;;;;;;6.75;4.50;;;;;;;;5073601;28;46354;-70
2022/01/28 12:39:32;;;;;;;;;4.00;4.00;;;;;;;;5072045;28;45446;-70
2022/01/28 12:42:15;;;;;;;;;5.50;5.50;;;;;;;;5072183;28;45393;-70
2022/01/28 12:44:40;;;;;;;;;5.25;3.00;;;;;;;;5064912;28;45521;-68
2022/01/28 12:47:09;;;;;;;;;5.00;4.00;;;;;;;;5073533;27;46462;-69
2022/01/28 12:49:35;;;;;;;;;2.00;2.00;;;;;;;;5053610;28;45434;-68
2022/01/28 12:52:01;;;;;;;;;6.00;4.00;;;;;;;;5071074;28;45521;-68
2022/01/28 12:54:45;;;;;;;;;5.00;5.00;;;;;;;;5076287;27;46867;-68
2022/01/28 12:57:12;;;;;;;;;5.75;5.75;;;;;;;;5072481;28;46702;-68
2022/01/28 12:59:38;;;;;;;;;4.00;4.00;;;;;;;;5077703;27;45356;-68
2022/01/28 13:02:03;;;;;;;;;5.00;5.00;;;;;;;;5076028;27;45566;-68
2022/01/28 13:09:54;;;;;;;;;7.00;5.25;;;;;;;;5074968;28;45406;-68
2022/01/28 13:12:20;;;;;;;;;7.00;5.00;;;;;;;;5073470;28;45443;-68
2022/01/28 13:14:45;;;;;;;;;5.50;4.75;;;;;;;;5073159;28;45852;-68
2022/01/28 13:17:10;;;;;;;;;4.25;3.75;;;;;;;;5079964;27;46312;-68
2022/01/28 13:19:36;;;;;;;;;5.00;5.00;;;;;;;;5073339;27;45632;-68
2022/01/28 13:22:01;;;;;;;;;4.00;4.00;;;;;;;;5076268;28;45330;-68
2022/01/28 13:24:29;;;;;;;;;3.75;3.75;;;;;;;;5049130;28;45657;-68
2022/01/28 13:26:54;;;;;;;;;4.50;4.00;;;;;;;;5073217;27;45441;-68
2022/01/28 13:29:38;;;;;;;;;5.00;5.00;;;;;;;;5070479;28;45367;-69
2022/01/28 13:32:05;;;;;;;;;5.25;5.00;;;;;;;;5074852;27;45339;-69
2022/01/28 13:34:47;;;;;;;;;3.00;3.00;;;;;;;;5073537;28;45342;-68
2022/01/28 13:37:29;;;;;;;;;6.00;4.50;;;;;;;;5072153;27;45850;-68
2022/01/28 13:39:54;;;;;;;;;5.00;5.00;;;;;;;;5074938;28;45418;-68
2022/01/28 13:42:23;;;;;;;;;5.25;5.25;;;;;;;;5073324;27;48756;-69
2022/01/28 13:44:49;;;;;;;;;3.75;3.75;;;;;;;;5074876;27;45520;-68
2022/01/28 13:47:16;;;;;;;;;6.00;5.25;;;;;;;;5074081;27;46341;-68
2022/01/28 13:49:41;;;;;;;;;5.00;3.50;;;;;;;;5072826;27;45535;-68
2022/01/28 13:52:10;;;;;;;;;6.00;5.00;;;;;;;;5074328;28;45470;-68
2022/01/28 13:54:35;;;;;;;;;5.00;5.00;;;;;;;;5072930;28;45296;-68
2022/01/28 13:57:01;;;;;;;;;5.50;5.25;;;;;;;;5073203;27;45856;-68
2022/01/28 13:59:29;;;;;;;;;5.25;5.25;;;;;;;;5076587;27;45356;-68
2022/01/28 14:01:56;;;;;;;;;3.25;3.25;;;;;;;;5072826;28;46394;-68
2022/01/28 14:04:42;;;;;;;;;5.25;5.00;;;;;;;;5072860;28;45488;-68
2022/01/28 14:07:20;;;;;;;;;3.50;3.25;;;;;;;;5073423;28;46153;-69
2022/01/28 14:09:47;;;;;;;;;6.00;5.00;;;;;;;;5074968;28;45483;-68
2022/01/28 14:12:39;;;;;;;;;3.25;3.25;;;;;;;;5079012;27;45386;-69
2022/01/28 14:15:15;;;;;;;;;6.75;4.00;;;;;;;;5073400;27;45455;-68
2022/01/28 14:17:40;;;;;;;;;5.25;5.25;;;;;;;;5070858;28;45528;-68
2022/01/28 14:20:06;;;;;;;;;5.00;5.00;;;;;;;;5074007;27;45361;-68
2022/01/28 14:22:32;;;;;;;;;5.00;4.00;;;;;;;;5074652;27;45442;-68
2022/01/28 14:24:57;;;;;;;;;5.50;5.50;;;;;;;;5081467;27;45269;-68
2022/01/28 14:30:02;;;;;;;;;4.00;3.75;;;;;;;;5072530;28;45391;-68
2022/01/28 14:32:28;;;;;;;;;6.75;6.00;;;;;;;;5072693;28;45482;-68
2022/01/28 14:34:54;;;;;;;;;5.25;4.75;;;;;;;;5072681;27;45269;-68
2022/01/28 14:37:20;;;;;;;;;7.25;6.00;;;;;;;;5087606;27;45521;-68
2022/01/28 14:39:46;;;;;;;;;7.00;4.00;;;;;;;;5074791;27;45454;-68
2022/01/28 14:42:12;;;;;;;;;6.50;5.50;;;;;;;;5073503;27;45411;-68
2022/01/28 14:44:38;;;;;;;;;5.25;5.00;;;;;;;;5073550;28;45402;-68
2022/01/28 14:47:04;;;;;;;;;5.75;5.00;;;;;;;;5074964;27;46289;-68
2022/01/28 14:49:30;;;;;;;;;3.75;3.75;;;;;;;;5075827;28;45389;-68
2022/01/28 14:52:00;;;;;;;;;4.25;4.25;;;;;;;;5083781;27;45400;-68
2022/01/28 14:54:28;;;;;;;;;4.00;4.00;;;;;;;;5075037;27;45277;-68
2022/01/28 14:56:57;;;;;;;;;4.50;4.00;;;;;;;;5079030;27;46427;-68
2022/01/28 14:59:23;;;;;;;;;7.00;5.00;;;;;;;;5078370;27;45240;-68
2022/01/28 15:01:48;;;;;;;;;8.00;5.00;;;;;;;;5092930;27;45620;-68
2022/01/28 15:04:14;;;;;;;;;4.75;4.50;;;;;;;;5077805;27;45697;-68
2022/01/28 15:06:40;;;;;;;;;4.00;3.50;;;;;;;;5077970;27;46675;-68
2022/01/28 15:09:05;;;;;;;;;3.25;3.25;;;;;;;;5077702;27;45301;-68
2022/01/28 15:11:52;;;;;;;;;4.00;4.00;;;;;;;;5078107;27;45513;-68
2022/01/28 15:14:26;;;;;;;;;4.25;4.25;;;;;;;;5077811;27;45441;-68
2022/01/28 15:16:52;;;;;;;;;4.75;4.00;;;;;;;;5078051;27;45463;-68
2022/01/28 15:19:18;;;;;;;;;4.00;4.00;;;;;;;;5078168;27;45855;-68
2022/01/28 15:21:48;;;;;;;;;6.00;5.00;;;;;;;;5077755;27;45370;-67
2022/01/28 15:24:14;;;;;;;;;4.25;4.25;;;;;;;;5079993;27;45516;-68
2022/01/28 15:26:39;;;;;;;;;4.00;4.00;;;;;;;;5077962;27;45341;-68
2022/01/28 15:29:10;;;;;;;;;3.75;3.25;;;;;;;;5075177;28;45386;-67
2022/01/28 15:34:41;;;;;;;;;3.50;3.50;;;;;;;;5087036;27;46745;-68
2022/01/28 15:37:06;;;;;;;;;4.75;4.75;;;;;;;;5073459;28;46646;-67
2022/01/28 15:39:35;;;;;;;;;5.25;4.00;;;;;;;;5076347;27;45307;-68
2022/01/28 15:42:04;;;;;;;;;4.50;3.50;;;;;;;;5076164;27;45501;-67
2022/01/28 15:44:29;;;;;;;;;3.50;3.50;;;;;;;;5074154;27;45462;-68
2022/01/28 15:46:54;;;;;;;;;5.00;5.00;;;;;;;;5075723;27;46441;-67
2022/01/28 15:49:20;;;;;;;;;4.25;4.00;;;;;;;;5074981;28;45360;-68
2022/01/28 15:51:45;;;;;;;;;4.50;4.50;;;;;;;;5076175;27;45470;-67
2022/01/28 15:54:12;;;;;;;;;3.25;3.25;;;;;;;;5057505;28;45562;-68
2022/01/28 15:56:37;;;;;;;;;3.75;3.75;;;;;;;;5076298;27;46097;-68
2022/01/28 15:59:02;;;;;;;;;4.00;4.00;;;;;;;;5073783;28;45743;-67
2022/01/28 16:01:28;;;;;;;;;4.00;4.00;;;;;;;;5056779;28;45383;-68
2022/01/28 16:03:53;;;;;;;;;3.25;3.25;;;;;;;;5076647;28;45217;-68
2022/01/28 16:06:19;;;;;;;;;4.00;4.00;;;;;;;;5076632;27;46786;-68
2022/01/28 16:08:44;;;;;;;;;4.25;4.00;;;;;;;;5072935;28;45501;-68
2022/01/28 16:18:36;;;;;;;;;5.00;5.00;;;;;;;;5080525;27;45529;-68
2022/01/28 16:21:01;;;;;;;;;3.00;3.00;;;;;;;;5080473;27;45624;-67
2022/01/28 16:23:28;;;;;;;;;4.00;4.00;;;;;;;;5074199;28;45399;-70
2022/01/28 16:25:54;;;;;;;;;6.25;4.00;;;;;;;;5074019;28;45729;-70
2022/01/28 16:28:19;;;;;;;;;4.25;4.00;;;;;;;;5073947;28;45584;-70
2022/01/28 16:30:44;;;;;;;;;3.00;3.00;;;;;;;;5074446;28;45364;-69
2022/01/28 16:33:10;;;;;;;;;4.25;4.25;;;;;;;;5071830;28;45313;-73
2022/01/28 16:35:35;;;;;;;;;3.00;3.00;;;;;;;;5073726;28;46519;-68
2022/01/28 16:38:02;;;;;;;;;5.00;5.00;;;;;;;;5073992;28;45328;-68